Time;durP1;ratioP1;P1;durP2;ratioP2;P2;SDS_P1;SDS_P2;PMS_P1;PMS_P2;Temp;Humidity;BMP_temperature;BMP_pressure;BME280_temperature;BME280_humidity;BME280_pressure;Samples;Min_cycle;Max_cycle;Signal;HPM_P1;HPM_P2
2022/11/30 00:00:46;;;;;;;174.13;64.20;;;;;;;5.38;100.00;102016.84;4994023;28;20124;-75
2022/11/30 00:03:13;;;;;;;194.35;68.45;;;;;;;5.40;100.00;102009.56;4976929;28;20044;-75
2022/11/30 00:05:39;;;;;;;190.43;69.63;;;;;;;5.54;100.00;102017.63;4981496;28;20038;-75
2022/11/30 00:08:04;;;;;;;190.05;68.32;;;;;;;5.39;100.00;102007.81;4974760;28;20049;-76
2022/11/30 00:10:30;;;;;;;182.70;67.10;;;;;;;5.11;100.00;102004.19;4996852;28;20030;-77
2022/11/30 00:12:55;;;;;;;200.43;70.03;;;;;;;5.16;100.00;102004.78;4980456;28;20157;-74
2022/11/30 00:15:21;;;;;;;188.60;67.72;;;;;;;5.18;100.00;102000.16;4995882;28;20026;-76
2022/11/30 00:17:47;;;;;;;200.57;71.07;;;;;;;5.06;100.00;101995.56;4978503;28;20026;-75
2022/11/30 00:20:14;;;;;;;215.25;75.72;;;;;;;5.00;100.00;101995.06;4977713;28;20026;-77
2022/11/30 00:22:41;;;;;;;189.50;68.15;;;;;;;5.06;100.00;102000.91;4976251;28;20057;-75
2022/11/30 00:25:07;;;;;;;195.82;68.05;;;;;;;5.22;100.00;102003.53;4971419;28;20506;-78
2022/11/30 00:27:33;;;;;;;196.05;68.60;;;;;;;5.10;100.00;102013.22;4957220;28;20033;-77
2022/11/30 00:29:59;;;;;;;179.73;67.82;;;;;;;5.08;100.00;102009.72;4971220;28;20022;-78
2022/11/30 00:32:28;;;;;;;206.27;72.78;;;;;;;5.15;100.00;102021.84;4975543;28;20026;-77
2022/11/30 00:34:54;;;;;;;214.02;72.18;;;;;;;5.16;100.00;102017.34;4975644;28;20037;-74
2022/11/30 00:37:20;;;;;;;202.88;73.38;;;;;;;4.97;100.00;102017.59;4981241;28;20046;-75
2022/11/30 00:39:46;;;;;;;209.00;68.65;;;;;;;5.00;100.00;102022.78;4975752;28;20030;-73
2022/11/30 00:42:12;;;;;;;191.32;70.88;;;;;;;5.05;100.00;102020.69;4975437;28;20068;-74
2022/11/30 00:44:37;;;;;;;192.75;67.50;;;;;;;4.96;100.00;102026.63;4994917;28;20065;-78
2022/11/30 00:47:03;;;;;;;207.48;72.90;;;;;;;4.95;100.00;102030.22;4975425;28;20076;-76
2022/11/30 00:49:28;;;;;;;199.73;69.45;;;;;;;5.01;100.00;102024.50;4975530;28;20030;-76
2022/11/30 00:51:53;;;;;;;193.05;64.38;;;;;;;4.97;100.00;102033.72;4975076;28;20073;-76
2022/11/30 00:54:19;;;;;;;213.10;74.55;;;;;;;4.88;100.00;102034.25;4974889;28;20032;-76
2022/11/30 00:56:44;;;;;;;191.98;66.90;;;;;;;4.97;100.00;102031.03;4979968;28;20073;-77
2022/11/30 00:59:10;;;;;;;207.88;71.15;;;;;;;4.98;100.00;102035.44;4987469;28;20041;-77
2022/11/30 01:01:35;;;;;;;196.38;70.55;;;;;;;4.88;100.00;102031.56;4987317;28;20031;-77
2022/11/30 01:04:04;;;;;;;203.38;70.25;;;;;;;5.15;100.00;102043.31;4987705;28;20022;-77
2022/11/30 01:06:29;;;;;;;209.93;71.60;;;;;;;4.99;100.00;102037.16;4987673;28;20030;-77
2022/11/30 01:08:55;;;;;;;203.90;71.32;;;;;;;5.01;100.00;102040.59;4988098;28;20025;-77
2022/11/30 01:11:23;;;;;;;210.50;71.53;;;;;;;5.09;100.00;102038.34;4986238;28;20466;-77
2022/11/30 01:13:49;;;;;;;192.30;70.28;;;;;;;5.17;100.00;102046.78;4986382;28;20030;-77
2022/11/30 01:16:18;;;;;;;210.80;69.68;;;;;;;5.09;100.00;102038.34;4986928;28;20041;-77
2022/11/30 01:18:44;;;;;;;202.90;69.68;;;;;;;5.16;100.00;102045.06;4985541;28;20023;-78
2022/11/30 01:21:12;;;;;;;221.40;73.43;;;;;;;5.07;100.00;102045.59;4992882;28;20076;-78
2022/11/30 01:23:38;;;;;;;206.50;67.65;;;;;;;5.17;100.00;102046.78;4976325;28;20026;-78
2022/11/30 01:26:04;;;;;;;233.20;77.20;;;;;;;5.12;100.00;102046.19;4995474;28;20026;-79
2022/11/30 01:28:29;;;;;;;207.10;74.32;;;;;;;5.22;100.00;102049.19;4974946;28;20025;-79
2022/11/30 01:31:03;;;;;;;202.82;73.03;;;;;;;5.30;100.00;102056.75;4978858;28;20060;-78
2022/11/30 01:33:29;;;;;;;202.70;72.95;;;;;;;5.24;100.00;102041.03;4980784;28;20124;-79
2022/11/30 01:36:02;;;;;;;202.77;69.10;;;;;;;5.21;100.00;102051.94;4980821;28;20053;-78
2022/11/30 01:38:32;;;;;;;205.93;73.18;;;;;;;5.03;100.00;102044.06;4979114;28;20022;-78
2022/11/30 01:40:58;;;;;;;222.15;74.43;;;;;;;5.09;100.00;102043.69;4995937;28;20046;-78
2022/11/30 01:43:37;;;;;;;224.85;75.32;;;;;;;5.05;100.00;102036.78;4978125;28;20403;-78
2022/11/30 01:46:04;;;;;;;233.38;76.43;;;;;;;5.06;100.00;102041.19;4978629;28;20022;-78
2022/11/30 01:48:29;;;;;;;221.90;78.13;;;;;;;4.99;100.00;102042.53;4978751;28;20048;-78
2022/11/30 01:50:55;;;;;;;225.13;76.25;;;;;;;5.02;100.00;102036.09;4996151;28;20434;-78
2022/11/30 01:53:22;;;;;;;209.40;72.07;;;;;;;5.05;100.00;102033.25;4996002;28;20030;-78
2022/11/30 01:55:48;;;;;;;219.35;74.90;;;;;;;5.07;100.00;102024.13;4978070;28;20029;-78
2022/11/30 01:58:26;;;;;;;220.35;76.32;;;;;;;5.04;100.00;102024.31;4996826;28;20022;-78
2022/11/30 02:00:51;;;;;;;219.05;76.35;;;;;;;5.00;100.00;102022.78;4979641;28;20033;-78
2022/11/30 02:03:34;;;;;;;204.82;72.55;;;;;;;5.14;100.00;102036.19;4979626;28;20026;-78
2022/11/30 02:06:00;;;;;;;200.70;73.40;;;;;;;5.19;100.00;102027.88;4978433;28;20185;-78
2022/11/30 02:08:27;;;;;;;203.73;71.60;;;;;;;5.13;100.00;102029.13;4977914;28;20071;-78
2022/11/30 02:10:57;;;;;;;205.27;68.85;;;;;;;5.19;100.00;102033.25;4978029;28;20019;-78
2022/11/30 02:13:36;;;;;;;202.40;68.57;;;;;;;4.99;100.00;102037.16;4977902;28;20072;-78
2022/11/30 02:16:31;;;;;;;201.00;70.90;;;;;;;5.20;100.00;102034.09;4977854;28;20073;-78
2022/11/30 02:19:06;;;;;;;180.85;66.45;;;;;;;5.11;100.00;102031.03;4977394;28;20089;-78
2022/11/30 02:21:45;;;;;;;211.25;71.80;;;;;;;5.39;100.00;102034.69;4977605;28;20026;-78
2022/11/30 02:24:35;;;;;;;218.90;74.75;;;;;;;5.42;100.00;102039.88;4994544;28;20030;-78
2022/11/30 02:27:13;;;;;;;188.82;69.05;;;;;;;5.39;100.00;102040.06;4977853;28;20119;-78
2022/11/30 02:29:48;;;;;;;196.02;70.60;;;;;;;5.36;100.00;102029.53;4969703;28;20030;-78
2022/11/30 02:32:26;;;;;;;210.02;74.78;;;;;;;5.21;100.00;102033.13;4958345;28;20035;-78
2022/11/30 02:34:55;;;;;;;201.40;74.03;;;;;;;5.26;100.00;102031.03;4957910;28;20027;-78
2022/11/30 02:37:24;;;;;;;208.18;70.82;;;;;;;5.02;100.00;102034.31;4958002;28;20165;-78
2022/11/30 02:39:49;;;;;;;201.13;73.43;;;;;;;5.20;100.00;102028.72;4957577;28;20054;-78
2022/11/30 02:42:15;;;;;;;207.10;75.30;;;;;;;4.97;100.00;102030.16;4957798;28;20030;-78
2022/11/30 02:44:43;;;;;;;207.80;71.93;;;;;;;5.18;100.00;102032.38;4976340;28;20041;-78
2022/11/30 02:47:27;;;;;;;192.52;69.28;;;;;;;5.24;100.00;102035.66;4994549;28;20050;-78
2022/11/30 02:50:00;;;;;;;193.05;69.60;;;;;;;5.14;100.00;102030.84;4994572;28;20018;-78
2022/11/30 02:52:27;;;;;;;197.27;72.40;;;;;;;5.24;100.00;102041.88;4976999;28;20022;-78
2022/11/30 02:54:59;;;;;;;200.45;72.53;;;;;;;5.34;100.00;102042.16;4976965;28;20022;-78
2022/11/30 02:57:24;;;;;;;188.30;66.30;;;;;;;5.37;100.00;102041.97;4977467;28;20058;-78
2022/11/30 02:59:49;;;;;;;194.40;67.15;;;;;;;5.25;100.00;102050.78;4977493;28;20085;-78
2022/11/30 03:02:15;;;;;;;228.10;76.18;;;;;;;5.18;100.00;102048.50;4977640;28;20026;-78
2022/11/30 03:04:40;;;;;;;189.20;68.45;;;;;;;5.21;100.00;102057.31;4976792;28;20027;-78
2022/11/30 03:07:05;;;;;;;200.90;73.88;;;;;;;5.25;100.00;102058.84;4991766;28;20026;-78
2022/11/30 03:09:31;;;;;;;221.75;77.15;;;;;;;5.37;100.00;102058.09;4976839;28;20105;-78
2022/11/30 03:11:56;;;;;;;205.43;72.90;;;;;;;5.50;100.00;102064.44;4995478;28;20436;-79
2022/11/30 03:14:22;;;;;;;212.63;76.82;;;;;;;5.45;100.00;102055.78;4979401;28;20038;-79
2022/11/30 03:16:47;;;;;;;217.43;75.57;;;;;;;5.42;100.00;102059.53;5037249;23;20728;-75
2022/11/30 03:19:13;;;;;;;215.27;75.35;;;;;;;5.39;100.00;102061.53;5008906;28;20033;-76
2022/11/30 03:21:38;;;;;;;205.73;74.18;;;;;;;5.35;100.00;102057.34;5029125;28;20466;-75
2022/11/30 03:24:04;;;;;;;227.40;79.82;;;;;;;5.24;100.00;102070.56;5014070;28;20040;-75
2022/11/30 03:26:29;;;;;;;208.70;74.60;;;;;;;5.34;100.00;102059.13;5005129;28;20117;-75
2022/11/30 03:28:54;;;;;;;206.88;74.00;;;;;;;5.51;100.00;102066.16;5013942;28;20034;-75
2022/11/30 03:31:20;;;;;;;192.15;68.30;;;;;;;5.56;100.00;102069.41;4996871;28;20030;-75
2022/11/30 03:33:45;;;;;;;215.85;71.53;;;;;;;5.48;100.00;102070.84;4996070;28;20032;-75
2022/11/30 03:36:11;;;;;;;224.70;77.43;;;;;;;5.43;100.00;102073.84;4996400;28;20026;-76
2022/11/30 03:38:37;;;;;;;227.65;77.28;;;;;;;5.36;100.00;102075.19;4997813;28;20053;-75
2022/11/30 03:41:05;;;;;;;239.27;77.40;;;;;;;5.40;100.00;102077.56;4996144;28;20041;-75
2022/11/30 03:43:31;;;;;;;221.07;75.60;;;;;;;5.31;100.00;102074.59;4995643;28;20030;-75
2022/11/30 03:45:57;;;;;;;239.38;79.82;;;;;;;5.29;100.00;102076.53;4996069;28;20500;-75
2022/11/30 03:48:23;;;;;;;244.45;77.63;;;;;;;5.34;100.00;102074.38;5025244;28;20029;-75
2022/11/30 03:50:49;;;;;;;232.70;76.53;;;;;;;5.17;100.00;102062.88;5011601;28;20101;-75
2022/11/30 03:53:19;;;;;;;236.85;76.93;;;;;;;5.29;100.00;102071.16;4997046;28;20068;-75
2022/11/30 03:55:45;;;;;;;221.77;71.97;;;;;;;5.43;100.00;102068.47;4996308;28;20033;-75
2022/11/30 03:58:11;;;;;;;225.75;74.70;;;;;;;5.56;100.00;102069.41;4995788;28;20052;-75
2022/11/30 04:00:38;;;;;;;232.43;76.15;;;;;;;5.15;100.00;102075.53;5013372;28;20482;-75
2022/11/30 04:03:03;;;;;;;241.80;79.78;;;;;;;5.09;100.00;102075.91;4995890;28;20045;-75
2022/11/30 04:05:29;;;;;;;241.77;74.88;;;;;;;5.08;100.00;102079.53;4995477;28;20058;-75
2022/11/30 04:07:54;;;;;;;233.40;78.70;;;;;;;5.24;100.00;102083.97;4995713;28;20067;-75
2022/11/30 04:10:20;;;;;;;227.98;74.97;;;;;;;5.47;100.00;102077.19;4994624;28;20108;-75
2022/11/30 04:12:45;;;;;;;239.93;76.93;;;;;;;5.37;100.00;102079.59;4995836;28;20125;-75
2022/11/30 04:15:10;;;;;;;220.70;73.00;;;;;;;5.43;100.00;102073.84;5012879;28;20030;-76
2022/11/30 04:17:36;;;;;;;218.75;70.85;;;;;;;5.29;100.00;102076.53;5012602;28;20033;-75
2022/11/30 04:20:02;;;;;;;255.52;76.72;;;;;;;5.31;100.00;102074.59;5012736;28;20044;-75
2022/11/30 04:22:27;;;;;;;233.15;74.55;;;;;;;5.34;100.00;102074.38;5015325;28;20047;-75
2022/11/30 04:24:53;;;;;;;240.20;76.95;;;;;;;5.47;100.00;102078.03;5014872;28;20084;-75
2022/11/30 04:27:18;;;;;;;226.50;71.43;;;;;;;5.47;100.00;102086.09;5015321;28;20111;-75
2022/11/30 04:29:43;;;;;;;237.48;76.10;;;;;;;5.09;100.00;102081.28;5015599;28;20044;-75
2022/11/30 04:32:09;;;;;;;240.75;74.95;;;;;;;5.03;100.00;102087.03;5033397;28;20030;-75
2022/11/30 04:34:34;;;;;;;232.40;71.25;;;;;;;5.18;100.00;102091.44;5015585;28;20025;-75
2022/11/30 04:36:59;;;;;;;255.63;78.47;;;;;;;5.11;100.00;102090.09;5015188;28;20030;-75
2022/11/30 04:39:25;;;;;;;249.85;76.10;;;;;;;4.98;100.00;102093.63;5015197;28;20187;-75
2022/11/30 04:41:50;;;;;;;233.05;77.28;;;;;;;5.01;100.00;102083.53;5032474;28;20034;-75
2022/11/30 04:44:15;;;;;;;243.80;77.80;;;;;;;5.15;100.00;102086.28;5015135;28;20144;-75
2022/11/30 04:46:41;;;;;;;236.55;71.28;;;;;;;5.03;100.00;102086.16;5015164;28;20034;-75
2022/11/30 04:49:06;;;;;;;250.63;74.70;;;;;;;5.01;100.00;102091.59;5015737;28;20421;-75
2022/11/30 04:51:31;;;;;;;251.35;76.00;;;;;;;5.21;100.00;102078.78;5032567;28;20029;-75
2022/11/30 04:53:57;;;;;;;244.23;75.38;;;;;;;5.29;100.00;102089.94;5014827;28;20104;-75
2022/11/30 04:56:23;;;;;;;260.10;79.32;;;;;;;4.99;100.00;102080.09;5007225;28;20029;-75
2022/11/30 04:58:48;;;;;;;255.98;79.60;;;;;;;5.00;100.00;102091.69;5015183;28;20040;-75
2022/11/30 05:01:14;;;;;;;248.10;74.68;;;;;;;5.21;100.00;102089.53;5015208;28;20025;-75
2022/11/30 05:03:39;;;;;;;260.80;78.18;;;;;;;5.11;100.00;102087.41;5016106;28;20066;-76
2022/11/30 05:06:04;;;;;;;286.77;81.28;;;;;;;5.04;100.00;102091.44;5019600;28;20033;-75
2022/11/30 05:08:30;;;;;;;240.02;73.78;;;;;;;5.13;100.00;102093.53;5002920;28;20048;-75
2022/11/30 05:10:55;;;;;;;248.85;73.15;;;;;;;5.03;100.00;102103.13;5016720;28;20057;-75
2022/11/30 05:13:23;;;;;;;269.08;78.57;;;;;;;5.25;100.00;102091.06;5010444;28;20021;-75
2022/11/30 05:15:48;;;;;;;268.67;76.90;;;;;;;5.30;100.00;102105.09;5002512;28;20497;-76
2022/11/30 05:18:14;;;;;;;248.50;78.25;;;;;;;5.42;100.00;102107.88;5016331;28;20033;-76
2022/11/30 05:20:40;;;;;;;288.40;77.63;;;;;;;5.53;100.00;102101.84;4999213;28;20117;-76
2022/11/30 05:23:05;;;;;;;273.17;80.75;;;;;;;5.57;100.00;102108.75;4998972;28;20511;-76
2022/11/30 05:25:31;;;;;;;274.48;82.05;;;;;;;5.39;100.00;102115.25;4998830;28;20030;-76
2022/11/30 05:27:56;;;;;;;278.73;77.25;;;;;;;5.30;100.00;102115.84;5016789;28;20076;-76
2022/11/30 05:30:22;;;;;;;268.55;78.53;;;;;;;5.49;100.00;102121.81;4998776;28;20089;-76
2022/11/30 05:32:47;;;;;;;272.42;74.07;;;;;;;5.36;100.00;102121.69;4998533;28;20036;-76
2022/11/30 05:35:12;;;;;;;310.55;82.93;;;;;;;5.33;100.00;102126.38;4998310;28;20080;-76
2022/11/30 05:37:38;;;;;;;286.33;84.10;;;;;;;5.55;100.00;102125.94;4998863;28;20084;-76
2022/11/30 05:40:04;;;;;;;256.58;76.97;;;;;;;5.43;100.00;102128.41;5016038;28;20073;-76
2022/11/30 05:42:29;;;;;;;308.38;84.82;;;;;;;5.27;100.00;102137.47;5016290;28;20065;-76
2022/11/30 05:44:54;;;;;;;284.23;76.90;;;;;;;5.48;100.00;102130.81;4998543;28;20026;-76
2022/11/30 05:47:20;;;;;;;310.80;87.57;;;;;;;5.31;100.00;102136.34;4997908;28;20060;-76
2022/11/30 05:49:45;;;;;;;314.70;85.90;;;;;;;5.42;100.00;102136.56;5005289;28;20021;-76
2022/11/30 05:52:10;;;;;;;305.73;88.57;;;;;;;5.49;100.00;102137.94;5018217;28;20076;-76
2022/11/30 05:54:36;;;;;;;306.25;85.50;;;;;;;5.41;100.00;102132.13;5017255;28;20543;-76
2022/11/30 05:57:01;;;;;;;320.25;89.93;;;;;;;5.45;100.00;102131.00;5017881;28;20029;-76
2022/11/30 05:59:26;;;;;;;291.95;81.10;;;;;;;5.33;100.00;102137.13;5017984;28;20068;-76
2022/11/30 06:01:52;;;;;;;310.25;84.95;;;;;;;5.30;100.00;102137.31;5018294;28;20036;-76
2022/11/30 06:04:17;;;;;;;338.63;91.60;;;;;;;4.97;100.00;102140.22;5017985;28;20379;-76
2022/11/30 06:06:42;;;;;;;335.48;87.78;;;;;;;5.06;100.00;102145.88;5016565;28;20120;-76
2022/11/30 06:09:08;;;;;;;310.00;84.68;;;;;;;5.26;100.00;102151.88;4998200;28;20038;-76
2022/11/30 06:11:33;;;;;;;313.63;86.30;;;;;;;5.28;100.00;102155.31;4997978;28;20057;-76
2022/11/30 06:13:59;;;;;;;348.77;86.28;;;;;;;5.02;100.00;102149.72;4997912;28;20030;-76
2022/11/30 06:16:24;;;;;;;320.63;88.45;;;;;;;5.10;100.00;102147.44;4996897;28;20028;-76
2022/11/30 06:18:49;;;;;;;302.17;84.88;;;;;;;5.17;100.00;102156.84;4999205;28;20033;-76
2022/11/30 06:21:15;;;;;;;310.30;85.15;;;;;;;5.05;100.00;102156.72;4998277;28;20026;-76
2022/11/30 06:23:40;;;;;;;308.63;80.63;;;;;;;5.01;100.00;102158.69;4998004;28;20034;-76
2022/11/30 06:26:10;;;;;;;280.42;76.53;;;;;;;4.83;100.00;102155.31;5015059;28;20025;-76
2022/11/30 06:28:36;;;;;;;301.00;82.30;;;;;;;5.09;100.00;102156.44;4998371;28;20040;-75
2022/11/30 06:31:03;;;;;;;267.15;72.82;;;;;;;5.03;100.00;102162.19;4998307;28;20034;-76
2022/11/30 06:33:29;;;;;;;326.70;85.47;;;;;;;4.84;100.00;102161.53;4997926;28;20037;-76
2022/11/30 06:35:55;;;;;;;308.27;82.63;;;;;;;5.03;100.00;102167.56;4998062;28;20026;-76
2022/11/30 06:38:22;;;;;;;299.70;82.78;;;;;;;5.23;100.00;102163.69;5015171;28;20038;-76
2022/11/30 06:40:48;;;;;;;285.00;77.47;;;;;;;5.42;100.00;102168.81;4998269;28;20060;-76
2022/11/30 06:43:13;;;;;;;269.10;75.20;;;;;;;5.38;100.00;102168.09;5015084;28;20026;-76
2022/11/30 06:45:38;;;;;;;315.08;80.47;;;;;;;5.32;100.00;102167.63;4997144;28;20026;-76
2022/11/30 06:48:04;;;;;;;299.75;83.32;;;;;;;5.22;100.00;102166.47;5017172;28;20080;-74
2022/11/30 06:50:29;;;;;;;283.40;80.63;;;;;;;5.17;100.00;102167.59;5017694;28;20053;-76
2022/11/30 06:52:55;;;;;;;301.80;83.70;;;;;;;5.26;100.00;102170.66;5016953;28;20141;-74
2022/11/30 06:55:22;;;;;;;279.65;76.90;;;;;;;5.23;100.00;102173.56;5017321;28;20116;-75
2022/11/30 06:57:48;;;;;;;282.52;80.93;;;;;;;5.32;100.00;102170.31;5035525;28;20037;-75
2022/11/30 07:00:14;;;;;;;293.52;89.20;;;;;;;5.12;100.00;102168.81;5016806;28;20025;-75
2022/11/30 07:02:40;;;;;;;290.08;88.25;;;;;;;5.23;100.00;102168.19;5015524;28;20021;-75
2022/11/30 07:05:05;;;;;;;281.77;85.30;;;;;;;5.14;100.00;102164.22;5008734;28;20033;-75
2022/11/30 07:07:31;;;;;;;252.38;73.75;;;;;;;4.94;100.00;102177.94;4995218;28;20029;-75
2022/11/30 07:09:57;;;;;;;219.35;68.47;;;;;;;5.07;100.00;102185.19;5012775;28;20028;-75
2022/11/30 07:12:23;;;;;;;251.27;76.25;;;;;;;5.06;100.00;102180.78;5012786;28;20030;-75
2022/11/30 07:14:51;;;;;;;241.40;74.53;;;;;;;5.04;100.00;102180.00;4994755;28;20071;-75
2022/11/30 07:17:17;;;;;;;234.50;73.40;;;;;;;4.90;100.00;102178.13;4994780;28;20025;-75
2022/11/30 07:19:42;;;;;;;226.73;68.53;;;;;;;4.93;100.00;102182.44;5012222;28;20486;-75
2022/11/30 07:22:07;;;;;;;235.15;72.38;;;;;;;4.80;100.00;102186.81;4995177;28;20037;-75
2022/11/30 07:27:17;;;;;;;237.85;73.57;;;;;;;5.00;100.00;102188.31;5011381;28;20030;-76
2022/11/30 07:29:42;;;;;;;226.52;68.07;;;;;;;5.21;100.00;102186.19;5012429;28;20030;-73
2022/11/30 07:32:08;;;;;;;223.80;71.60;;;;;;;5.23;100.00;102184.28;4995330;28;20073;-72
2022/11/30 07:34:33;;;;;;;206.27;69.20;;;;;;;5.15;100.00;102193.69;4995437;28;20030;-73
2022/11/30 07:36:58;;;;;;;202.95;69.10;;;;;;;5.32;100.00;102189.09;4995401;28;20096;-72
2022/11/30 07:39:24;;;;;;;213.20;61.80;;;;;;;5.26;100.00;102200.22;5012715;28;20084;-73
2022/11/30 07:41:49;;;;;;;204.40;61.88;;;;;;;5.16;100.00;102200.78;5012526;28;20084;-73
2022/11/30 07:44:14;;;;;;;206.18;63.58;;;;;;;5.28;100.00;102203.66;4995247;28;20030;-73
2022/11/30 07:46:40;;;;;;;206.65;65.50;;;;;;;5.21;100.00;102191.56;4994872;28;20104;-73
2022/11/30 07:49:08;;;;;;;209.20;67.03;;;;;;;5.43;100.00;102197.38;4995325;28;20030;-72
2022/11/30 07:51:34;;;;;;;195.75;65.82;;;;;;;5.14;100.00;102202.66;5012136;28;20065;-73
2022/11/30 07:53:59;;;;;;;189.27;59.97;;;;;;;5.07;100.00;102206.66;5003217;28;20123;-72
2022/11/30 07:56:26;;;;;;;192.13;64.20;;;;;;;4.90;100.00;102204.13;5007288;28;20034;-73
2022/11/30 07:58:57;;;;;;;185.38;60.22;;;;;;;5.18;100.00;102203.34;4990312;28;20109;-73
2022/11/30 08:01:25;;;;;;;188.90;62.45;;;;;;;5.26;100.00;102200.22;4989964;28;20046;-72
2022/11/30 08:03:51;;;;;;;180.00;61.67;;;;;;;5.30;100.00;102217.88;4989573;28;20038;-72
2022/11/30 08:06:19;;;;;;;195.63;60.38;;;;;;;5.23;100.00;102211.16;5008822;28;20039;-72
2022/11/30 08:08:46;;;;;;;176.32;57.53;;;;;;;5.49;100.00;102212.28;4989664;28;20025;-72
2022/11/30 08:11:14;;;;;;;160.32;56.30;;;;;;;5.36;100.00;102212.16;4989718;28;20026;-72
2022/11/30 08:13:40;;;;;;;154.65;56.20;;;;;;;5.45;100.00;102211.59;4990568;28;20021;-72
2022/11/30 08:16:09;;;;;;;163.68;56.72;;;;;;;5.28;100.00;102214.41;4989345;28;20029;-72
2022/11/30 08:18:34;;;;;;;175.73;61.40;;;;;;;5.33;100.00;102207.81;5004856;28;20050;-72
2022/11/30 08:21:02;;;;;;;169.63;59.95;;;;;;;5.37;100.00;102213.88;5008646;28;20017;-72
2022/11/30 08:23:39;;;;;;;144.30;55.95;;;;;;;5.38;100.00;102210.22;5008389;28;20025;-72
2022/11/30 08:26:08;;;;;;;154.35;55.92;;;;;;;5.25;100.00;102214.59;5025951;28;20025;-72
2022/11/30 08:28:35;;;;;;;163.55;57.05;;;;;;;5.20;100.00;102216.69;5027779;28;20025;-72
2022/11/30 08:31:09;;;;;;;156.52;53.55;;;;;;;5.18;100.00;102225.69;5009111;28;20043;-72
2022/11/30 08:33:36;;;;;;;148.75;52.08;;;;;;;5.35;100.00;102226.53;5009296;28;20017;-72
2022/11/30 08:36:21;;;;;;;143.35;56.92;;;;;;;5.22;100.00;102230.91;5008295;28;20116;-72
2022/11/30 08:38:47;;;;;;;140.43;53.63;;;;;;;5.22;100.00;102230.91;4989241;28;20069;-71
2022/11/30 08:41:15;;;;;;;153.25;57.25;;;;;;;5.24;100.00;102234.34;5015441;28;20041;-72
2022/11/30 08:43:41;;;;;;;123.35;49.33;;;;;;;5.13;100.00;102237.66;5009454;28;20087;-71
2022/11/30 08:46:10;;;;;;;126.10;49.38;;;;;;;4.99;100.00;102235.78;5028236;28;20041;-72
2022/11/30 08:48:35;;;;;;;133.32;51.85;;;;;;;5.11;100.00;102240.44;5003626;28;20026;-71
2022/11/30 08:51:02;;;;;;;133.80;50.63;;;;;;;5.33;100.00;102234.66;4993970;28;20091;-72
2022/11/30 08:53:28;;;;;;;134.43;49.80;;;;;;;5.45;100.00;102249.19;5028090;28;20033;-71
2022/11/30 08:56:06;;;;;;;129.35;49.47;;;;;;;5.47;100.00;102241.91;5026865;28;20040;-71
2022/11/30 08:58:35;;;;;;;120.43;51.10;;;;;;;5.63;100.00;102253.47;5005458;28;20026;-71
2022/11/30 09:01:21;;;;;;;123.78;50.13;;;;;;;5.58;100.00;102254.69;4990096;28;20026;-71
2022/11/30 09:03:49;;;;;;;120.57;47.78;;;;;;;5.45;100.00;102254.56;4989737;28;20049;-71
2022/11/30 09:06:20;;;;;;;106.43;43.67;;;;;;;5.42;100.00;102260.13;4989842;28;20030;-71
2022/11/30 09:08:47;;;;;;;101.20;44.50;;;;;;;5.51;100.00;102264.94;5024120;28;20055;-71
2022/11/30 09:11:15;;;;;;;122.85;48.67;;;;;;;5.35;100.00;102264.13;5026534;28;20784;-71
2022/11/30 09:13:42;;;;;;;106.95;48.20;;;;;;;5.40;100.00;102264.72;5010123;28;20061;-71
2022/11/30 09:16:09;;;;;;;123.03;47.55;;;;;;;5.53;100.00;102263.03;5009656;28;20413;-71
2022/11/30 09:18:35;;;;;;;114.82;47.72;;;;;;;5.34;100.00;102262.38;5009141;28;20033;-71
2022/11/30 09:21:05;;;;;;;113.50;47.80;;;;;;;5.45;100.00;102270.69;5009551;28;20021;-72
2022/11/30 09:23:31;;;;;;;111.40;46.47;;;;;;;5.45;100.00;102270.69;5004975;28;20029;-72
2022/11/30 09:25:58;;;;;;;108.28;45.42;;;;;;;5.74;100.00;102271.63;4988934;28;20034;-72
2022/11/30 09:28:24;;;;;;;107.97;44.08;;;;;;;5.76;100.00;102268.84;5008076;28;20026;-72
2022/11/30 09:30:50;;;;;;;101.35;43.42;;;;;;;5.90;100.00;102271.56;4989057;28;20132;-72
2022/11/30 09:33:15;;;;;;;110.40;46.03;;;;;;;5.75;100.00;102267.13;4988941;28;20201;-72
2022/11/30 09:35:41;;;;;;;102.15;45.10;;;;;;;5.59;100.00;102276.09;4989583;28;20036;-72
2022/11/30 09:38:06;;;;;;;116.47;46.45;;;;;;;5.68;100.00;102272.88;5005788;28;20045;-72
2022/11/30 09:40:33;;;;;;;102.00;47.35;;;;;;;5.65;100.00;102267.66;4989813;28;20058;-72
2022/11/30 09:43:37;;;;;;;111.47;44.65;;;;;;;5.61;100.00;102274.19;4988925;28;20034;-72
2022/11/30 09:46:05;;;;;;;115.50;46.28;;;;;;;5.44;100.00;102277.88;4939728;28;20100;-72
2022/11/30 09:48:57;;;;;;;96.85;42.40;;;;;;;5.65;100.00;102278.41;4992986;28;20036;-72
2022/11/30 09:51:43;;;;;;;105.32;44.90;;;;;;;5.85;100.00;102279.03;5008724;28;20054;-72
2022/11/30 09:54:19;;;;;;;88.95;41.65;;;;;;;5.72;100.00;102279.78;5009411;28;20125;-72
2022/11/30 09:56:45;;;;;;;93.03;42.08;;;;;;;5.66;100.00;102274.75;5009632;28;20037;-72
2022/11/30 09:59:19;;;;;;;88.63;41.67;;;;;;;5.69;100.00;102274.59;5010010;28;20084;-72
2022/11/30 10:01:47;;;;;;;84.35;37.78;;;;;;;5.63;100.00;102285.72;5010456;28;20080;-72
2022/11/30 10:04:27;;;;;;;90.00;43.30;;;;;;;5.66;100.00;102274.75;4992185;28;20378;-72
2022/11/30 10:07:35;;;;;;;95.28;40.80;;;;;;;5.82;100.00;102279.22;5009439;28;20024;-72
2022/11/30 10:10:19;;;;;;;101.28;44.88;;;;;;;5.80;100.00;102275.75;5009629;28;20169;-73
2022/11/30 10:13:22;;;;;;;95.43;45.72;;;;;;;5.70;100.00;102265.56;5010190;28;20383;-72
2022/11/30 10:16:21;;;;;;;106.43;43.63;;;;;;;5.34;100.00;102278.50;4991926;28;20034;-72
2022/11/30 10:19:18;;;;;;;106.38;46.80;;;;;;;5.33;100.00;102271.41;4996522;28;20514;-73
2022/11/30 10:21:59;;;;;;;97.22;41.33;;;;;;;5.39;100.00;102271.03;4991849;28;20085;-72
2022/11/30 10:24:39;;;;;;;90.45;42.67;;;;;;;5.39;100.00;102271.03;4992779;28;20021;-72
2022/11/30 10:27:16;;;;;;;95.35;43.40;;;;;;;5.09;100.00;102268.34;4992608;28;20034;-73
2022/11/30 10:29:42;;;;;;;96.10;43.15;;;;;;;5.23;100.00;102273.78;4992382;28;20014;-72
2022/11/30 10:32:19;;;;;;;101.13;42.53;;;;;;;5.08;100.00;102271.94;5009178;28;20030;-72
2022/11/30 10:34:52;;;;;;;107.90;42.90;;;;;;;5.39;100.00;102276.41;4991514;28;20030;-72
2022/11/30 10:37:21;;;;;;;101.35;44.67;;;;;;;5.34;100.00;102273.13;4992007;28;20038;-72
2022/11/30 10:40:01;;;;;;;105.43;44.83;;;;;;;5.45;100.00;102270.69;5009226;28;20030;-73
2022/11/30 10:42:33;;;;;;;103.70;43.20;;;;;;;5.40;100.00;102262.03;5010024;28;20061;-72
2022/11/30 10:45:16;;;;;;;91.40;40.53;;;;;;;5.50;100.00;102263.22;5008864;28;20125;-73
2022/11/30 10:47:50;;;;;;;106.97;44.00;;;;;;;5.38;100.00;102266.63;5009056;28;20026;-73
2022/11/30 10:50:16;;;;;;;101.90;42.85;;;;;;;5.36;100.00;102265.88;5008670;28;20028;-73
2022/11/30 10:52:47;;;;;;;99.68;43.20;;;;;;;5.53;100.00;102257.66;4991721;28;20030;-73
2022/11/30 10:55:21;;;;;;;91.85;42.67;;;;;;;5.75;100.00;102251.00;5010181;28;20065;-74
2022/11/30 10:57:49;;;;;;;93.30;41.40;;;;;;;5.78;100.00;102250.81;4991965;28;20030;-73
2022/11/30 11:00:16;;;;;;;101.97;45.17;;;;;;;5.82;100.00;102260.41;5008587;28;20030;-73
2022/11/30 11:02:47;;;;;;;97.65;44.35;;;;;;;5.86;100.00;102261.94;5008110;28;20112;-73
2022/11/30 11:05:20;;;;;;;105.57;45.17;;;;;;;5.60;100.00;102252.78;4991625;28;20037;-73
2022/11/30 11:08:16;;;;;;;107.25;44.70;;;;;;;5.52;100.00;102261.28;4991053;28;20029;-73
2022/11/30 11:10:41;;;;;;;111.72;46.70;;;;;;;5.52;100.00;102266.66;5008371;28;20030;-73